sensor_id;sensor_type;location;lat;lon;timestamp;pressure;altitude;pressure_sealevel;temperature;humidity
55460;BME280;41326;45.302;-122.946;2022-09-09T00:01:07;101073.59;;;21.72;45.62
55460;BME280;41326;45.302;-122.946;2022-09-09T00:03:40;101069.70;;;21.79;45.72
55460;BME280;41326;45.302;-122.946;2022-09-09T00:06:08;101068.81;;;21.86;45.79
55460;BME280;41326;45.302;-122.946;2022-09-09T00:08:42;101066.11;;;21.88;45.96
55460;BME280;41326;45.302;-122.946;2022-09-09T00:11:05;101063.30;;;21.87;46.35
55460;BME280;41326;45.302;-122.946;2022-09-09T00:13:38;101060.90;;;21.91;46.50
55460;BME280;41326;45.302;-122.946;2022-09-09T00:16:08;101060.74;;;21.92;46.13
55460;BME280;41326;45.302;-122.946;2022-09-09T00:18:39;101061.15;;;21.94;46.03
55460;BME280;41326;45.302;-122.946;2022-09-09T00:21:10;101050.72;;;21.96;45.84
55460;BME280;41326;45.302;-122.946;2022-09-09T00:23:38;101053.83;;;22.01;45.67
55460;BME280;41326;45.302;-122.946;2022-09-09T00:26:09;101054.38;;;22.03;45.61
55460;BME280;41326;45.302;-122.946;2022-09-09T00:28:38;101048.83;;;22.09;45.47
55460;BME280;41326;45.302;-122.946;2022-09-09T00:31:12;101046.61;;;22.10;45.52
55460;BME280;41326;45.302;-122.946;2022-09-09T00:33:36;101045.37;;;22.12;45.56
55460;BME280;41326;45.302;-122.946;2022-09-09T00:36:07;101041.99;;;22.15;45.47
55460;BME280;41326;45.302;-122.946;2022-09-09T00:38:39;101043.53;;;22.16;45.31
55460;BME280;41326;45.302;-122.946;2022-09-09T00:41:11;101042.51;;;22.20;45.41
55460;BME280;41326;45.302;-122.946;2022-09-09T00:43:38;101041.42;;;22.23;44.78
55460;BME280;41326;45.302;-122.946;2022-09-09T00:46:21;101036.48;;;22.25;44.03
55460;BME280;41326;45.302;-122.946;2022-09-09T00:48:43;101036.30;;;22.27;44.13
55460;BME280;41326;45.302;-122.946;2022-09-09T00:51:15;101034.69;;;22.30;44.43
55460;BME280;41326;45.302;-122.946;2022-09-09T00:53:51;101038.52;;;22.35;44.66
55460;BME280;41326;45.302;-122.946;2022-09-09T00:56:16;101038.67;;;22.41;44.65
55460;BME280;41326;45.302;-122.946;2022-09-09T00:58:40;101035.81;;;22.45;44.93
55460;BME280;41326;45.302;-122.946;2022-09-09T01:01:11;101031.90;;;22.47;44.63
55460;BME280;41326;45.302;-122.946;2022-09-09T01:03:42;101034.67;;;22.51;44.59
55460;BME280;41326;45.302;-122.946;2022-09-09T01:06:16;101032.76;;;22.52;44.56
55460;BME280;41326;45.302;-122.946;2022-09-09T01:08:54;101032.92;;;22.53;44.60
55460;BME280;41326;45.302;-122.946;2022-09-09T01:11:17;101027.04;;;22.51;44.69
55460;BME280;41326;45.302;-122.946;2022-09-09T01:13:42;101021.67;;;22.52;44.73
55460;BME280;41326;45.302;-122.946;2022-09-09T01:16:15;101024.13;;;22.53;44.78
55460;BME280;41326;45.302;-122.946;2022-09-09T01:18:44;101022.65;;;22.53;44.97
55460;BME280;41326;45.302;-122.946;2022-09-09T01:21:18;101021.44;;;22.55;45.01
55460;BME280;41326;45.302;-122.946;2022-09-09T01:23:56;101029.01;;;22.60;44.98
55460;BME280;41326;45.302;-122.946;2022-09-09T01:26:19;101025.04;;;22.61;44.89
55460;BME280;41326;45.302;-122.946;2022-09-09T01:28:45;101023.56;;;22.63;44.86
55460;BME280;41326;45.302;-122.946;2022-09-09T01:31:17;101020.72;;;22.65;44.93
55460;BME280;41326;45.302;-122.946;2022-09-09T01:33:45;101020.30;;;22.63;45.23
55460;BME280;41326;45.302;-122.946;2022-09-09T01:36:20;101017.06;;;22.63;45.76
55460;BME280;41326;45.302;-122.946;2022-09-09T01:38:46;101021.57;;;22.61;46.72
55460;BME280;41326;45.302;-122.946;2022-09-09T01:41:16;101020.32;;;22.65;47.50
55460;BME280;41326;45.302;-122.946;2022-09-09T01:43:46;101019.69;;;22.65;48.08
55460;BME280;41326;45.302;-122.946;2022-09-09T01:46:17;101020.25;;;22.67;48.42
55460;BME280;41326;45.302;-122.946;2022-09-09T01:48:47;101017.60;;;22.66;49.26
55460;BME280;41326;45.302;-122.946;2022-09-09T01:51:16;101014.10;;;22.67;49.20
55460;BME280;41326;45.302;-122.946;2022-09-09T01:53:47;101015.62;;;22.66;49.54
55460;BME280;41326;45.302;-122.946;2022-09-09T01:56:24;101015.99;;;22.66;49.85
55460;BME280;41326;45.302;-122.946;2022-09-09T01:58:59;101020.91;;;22.73;50.10
55460;BME280;41326;45.302;-122.946;2022-09-09T02:01:26;101019.05;;;22.80;49.64
55460;BME280;41326;45.302;-122.946;2022-09-09T02:03:51;101019.30;;;22.81;50.06
55460;BME280;41326;45.302;-122.946;2022-09-09T02:06:25;101018.78;;;22.90;49.54
55460;BME280;41326;45.302;-122.946;2022-09-09T02:08:52;101021.50;;;23.05;49.41
55460;BME280;41326;45.302;-122.946;2022-09-09T02:11:21;101019.50;;;23.13;49.06
55460;BME280;41326;45.302;-122.946;2022-09-09T02:13:52;101018.31;;;23.16;48.83
55460;BME280;41326;45.302;-122.946;2022-09-09T02:16:24;101014.80;;;23.16;48.65
55460;BME280;41326;45.302;-122.946;2022-09-09T02:18:57;101013.00;;;23.16;48.74
55460;BME280;41326;45.302;-122.946;2022-09-09T02:21:22;101011.14;;;23.14;49.00
55460;BME280;41326;45.302;-122.946;2022-09-09T02:23:52;101015.75;;;23.13;49.26
55460;BME280;41326;45.302;-122.946;2022-09-09T02:26:22;101007.34;;;23.13;49.43
55460;BME280;41326;45.302;-122.946;2022-09-09T02:28:54;101007.15;;;23.11;49.96
55460;BME280;41326;45.302;-122.946;2022-09-09T02:31:24;101008.53;;;23.10;50.47
55460;BME280;41326;45.302;-122.946;2022-09-09T02:33:56;101006.08;;;23.10;51.08
55460;BME280;41326;45.302;-122.946;2022-09-09T02:36:23;101008.61;;;23.10;51.56
55460;BME280;41326;45.302;-122.946;2022-09-09T02:38:53;101009.04;;;23.14;51.26
55460;BME280;41326;45.302;-122.946;2022-09-09T02:41:26;101010.30;;;23.16;50.47
55460;BME280;41326;45.302;-122.946;2022-09-09T02:43:53;101008.97;;;23.20;49.70
55460;BME280;41326;45.302;-122.946;2022-09-09T02:46:37;101009.52;;;23.19;47.72
55460;BME280;41326;45.302;-122.946;2022-09-09T02:48:59;101012.57;;;23.18;47.24
55460;BME280;41326;45.302;-122.946;2022-09-09T02:51:31;101005.73;;;23.17;46.16
55460;BME280;41326;45.302;-122.946;2022-09-09T02:54:03;101004.57;;;23.15;45.49
55460;BME280;41326;45.302;-122.946;2022-09-09T02:56:27;101005.94;;;23.10;43.87
55460;BME280;41326;45.302;-122.946;2022-09-09T02:58:56;101001.26;;;22.95;41.70
55460;BME280;41326;45.302;-122.946;2022-09-09T03:01:26;100999.46;;;22.82;42.02
55460;BME280;41326;45.302;-122.946;2022-09-09T03:03:56;100991.73;;;22.61;41.78
55460;BME280;41326;45.302;-122.946;2022-09-09T03:06:26;100997.02;;;22.52;41.43
55460;BME280;41326;45.302;-122.946;2022-09-09T03:08:57;100996.93;;;22.52;40.13
55460;BME280;41326;45.302;-122.946;2022-09-09T03:11:27;100998.55;;;22.50;39.89
55460;BME280;41326;45.302;-122.946;2022-09-09T03:13:58;100998.01;;;22.44;39.99
55460;BME280;41326;45.302;-122.946;2022-09-09T03:16:27;101003.44;;;22.38;39.19
55460;BME280;41326;45.302;-122.946;2022-09-09T03:18:57;101006.26;;;22.39;38.89
55460;BME280;41326;45.302;-122.946;2022-09-09T03:22:41;101006.89;;;22.34;38.66
55460;BME280;41326;45.302;-122.946;2022-09-09T03:25:12;101008.32;;;22.37;38.09
55460;BME280;41326;45.302;-122.946;2022-09-09T03:27:42;101008.14;;;22.37;38.10
55460;BME280;41326;45.302;-122.946;2022-09-09T03:30:13;101007.28;;;22.29;37.41
55460;BME280;41326;45.302;-122.946;2022-09-09T03:32:42;101006.73;;;22.26;38.00
55460;BME280;41326;45.302;-122.946;2022-09-09T03:35:13;101006.72;;;22.24;37.61
55460;BME280;41326;45.302;-122.946;2022-09-09T03:37:43;101003.74;;;22.19;37.23
55460;BME280;41326;45.302;-122.946;2022-09-09T03:40:14;101003.47;;;22.20;36.64
55460;BME280;41326;45.302;-122.946;2022-09-09T03:42:44;101002.85;;;22.17;36.82
55460;BME280;41326;45.302;-122.946;2022-09-09T03:45:15;101001.24;;;22.07;36.34
55460;BME280;41326;45.302;-122.946;2022-09-09T03:47:44;101004.68;;;22.11;37.23
55460;BME280;41326;45.302;-122.946;2022-09-09T03:50:15;101004.86;;;22.03;37.54
55460;BME280;41326;45.302;-122.946;2022-09-09T03:52:46;101005.59;;;21.96;37.82
55460;BME280;41326;45.302;-122.946;2022-09-09T03:55:15;101004.94;;;22.06;37.63
55460;BME280;41326;45.302;-122.946;2022-09-09T03:57:46;101006.38;;;22.05;37.80
55460;BME280;41326;45.302;-122.946;2022-09-09T04:00:16;101005.52;;;22.03;38.31
55460;BME280;41326;45.302;-122.946;2022-09-09T04:02:47;101005.82;;;21.88;38.49
55460;BME280;41326;45.302;-122.946;2022-09-09T04:05:17;101007.01;;;21.64;39.64
55460;BME280;41326;45.302;-122.946;2022-09-09T04:07:47;101004.58;;;21.60;39.81
55460;BME280;41326;45.302;-122.946;2022-09-09T04:10:17;101004.86;;;21.54;40.00
55460;BME280;41326;45.302;-122.946;2022-09-09T04:12:48;101003.09;;;21.54;39.91
55460;BME280;41326;45.302;-122.946;2022-09-09T04:15:18;101001.71;;;21.36;40.54
55460;BME280;41326;45.302;-122.946;2022-09-09T04:17:49;101001.88;;;21.33;40.97
55460;BME280;41326;45.302;-122.946;2022-09-09T04:20:19;100996.80;;;21.34;41.13
55460;BME280;41326;45.302;-122.946;2022-09-09T04:22:49;100996.54;;;21.31;41.50
55460;BME280;41326;45.302;-122.946;2022-09-09T04:25:19;100999.51;;;21.33;41.70
55460;BME280;41326;45.302;-122.946;2022-09-09T04:27:53;101001.59;;;21.36;42.05
55460;BME280;41326;45.302;-122.946;2022-09-09T04:30:20;101003.47;;;21.40;42.91
55460;BME280;41326;45.302;-122.946;2022-09-09T04:32:50;101002.96;;;21.50;43.85
55460;BME280;41326;45.302;-122.946;2022-09-09T04:35:21;101005.15;;;21.57;43.94
55460;BME280;41326;45.302;-122.946;2022-09-09T04:37:51;100998.90;;;21.62;43.27
55460;BME280;41326;45.302;-122.946;2022-09-09T04:40:21;100997.32;;;21.66;43.41
55460;BME280;41326;45.302;-122.946;2022-09-09T04:42:52;100998.90;;;21.68;43.52
55460;BME280;41326;45.302;-122.946;2022-09-09T04:45:23;100999.66;;;21.62;42.37
55460;BME280;41326;45.302;-122.946;2022-09-09T04:47:53;100993.76;;;21.45;41.89
55460;BME280;41326;45.302;-122.946;2022-09-09T04:50:23;100994.54;;;21.34;42.21
55460;BME280;41326;45.302;-122.946;2022-09-09T04:52:53;100989.32;;;21.22;43.58
55460;BME280;41326;45.302;-122.946;2022-09-09T04:55:23;100988.81;;;21.34;43.68
55460;BME280;41326;45.302;-122.946;2022-09-09T04:57:53;100988.51;;;21.42;43.84
55460;BME280;41326;45.302;-122.946;2022-09-09T05:00:24;100986.34;;;21.48;43.89
55460;BME280;41326;45.302;-122.946;2022-09-09T05:02:54;100983.25;;;21.49;43.21
55460;BME280;41326;45.302;-122.946;2022-09-09T05:05:24;100976.45;;;21.45;43.49
55460;BME280;41326;45.302;-122.946;2022-09-09T05:07:54;100977.04;;;21.44;43.43
55460;BME280;41326;45.302;-122.946;2022-09-09T05:10:24;100975.51;;;21.42;43.87
55460;BME280;41326;45.302;-122.946;2022-09-09T05:12:58;100974.35;;;21.39;44.28
55460;BME280;41326;45.302;-122.946;2022-09-09T05:15:25;100970.12;;;21.37;44.03
55460;BME280;41326;45.302;-122.946;2022-09-09T05:17:57;100970.20;;;21.33;43.38
55460;BME280;41326;45.302;-122.946;2022-09-09T05:20:26;100971.59;;;21.29;43.77
55460;BME280;41326;45.302;-122.946;2022-09-09T05:22:58;100968.72;;;21.27;43.94
55460;BME280;41326;45.302;-122.946;2022-09-09T05:25:26;100966.94;;;21.30;44.18
55460;BME280;41326;45.302;-122.946;2022-09-09T05:27:58;100962.29;;;21.32;44.23
55460;BME280;41326;45.302;-122.946;2022-09-09T05:30:27;100968.12;;;21.33;44.67
55460;BME280;41326;45.302;-122.946;2022-09-09T05:32:57;100966.08;;;21.32;44.97
55460;BME280;41326;45.302;-122.946;2022-09-09T05:35:28;100965.00;;;21.33;44.84
55460;BME280;41326;45.302;-122.946;2022-09-09T05:37:59;100960.93;;;21.33;44.79
55460;BME280;41326;45.302;-122.946;2022-09-09T05:40:28;100957.76;;;21.33;43.66
55460;BME280;41326;45.302;-122.946;2022-09-09T05:43:00;100956.48;;;21.27;43.92
55460;BME280;41326;45.302;-122.946;2022-09-09T05:45:29;100949.32;;;21.25;44.26
55460;BME280;41326;45.302;-122.946;2022-09-09T05:47:59;100950.22;;;21.28;44.46
55460;BME280;41326;45.302;-122.946;2022-09-09T05:50:30;100947.75;;;21.25;44.82
55460;BME280;41326;45.302;-122.946;2022-09-09T05:53:00;100946.07;;;21.24;45.14
55460;BME280;41326;45.302;-122.946;2022-09-09T05:55:30;100946.28;;;21.24;45.04
55460;BME280;41326;45.302;-122.946;2022-09-09T05:58:01;100944.65;;;21.23;44.65
55460;BME280;41326;45.302;-122.946;2022-09-09T06:00:31;100940.05;;;21.25;44.66
55460;BME280;41326;45.302;-122.946;2022-09-09T06:03:02;100936.81;;;21.20;44.36
55460;BME280;41326;45.302;-122.946;2022-09-09T06:05:31;100936.67;;;21.21;44.34
55460;BME280;41326;45.302;-122.946;2022-09-09T06:08:02;100936.09;;;21.23;44.33
55460;BME280;41326;45.302;-122.946;2022-09-09T06:10:32;100937.06;;;21.25;44.52
55460;BME280;41326;45.302;-122.946;2022-09-09T06:13:02;100938.24;;;21.18;44.52
55460;BME280;41326;45.302;-122.946;2022-09-09T06:15:32;100934.65;;;21.13;44.00
55460;BME280;41326;45.302;-122.946;2022-09-09T06:18:03;100931.30;;;21.11;43.68
55460;BME280;41326;45.302;-122.946;2022-09-09T06:20:33;100925.65;;;21.08;44.04
55460;BME280;41326;45.302;-122.946;2022-09-09T06:23:03;100925.48;;;21.08;44.01
55460;BME280;41326;45.302;-122.946;2022-09-09T06:25:33;100920.13;;;21.10;44.30
55460;BME280;41326;45.302;-122.946;2022-09-09T06:28:04;100920.27;;;21.14;44.23
55460;BME280;41326;45.302;-122.946;2022-09-09T06:30:34;100918.72;;;21.17;44.65
55460;BME280;41326;45.302;-122.946;2022-09-09T06:33:05;100913.10;;;21.15;45.00
55460;BME280;41326;45.302;-122.946;2022-09-09T06:35:35;100918.05;;;21.15;45.16
55460;BME280;41326;45.302;-122.946;2022-09-09T06:38:05;100915.46;;;21.17;45.06
55460;BME280;41326;45.302;-122.946;2022-09-09T06:40:36;100913.99;;;21.18;45.15
55460;BME280;41326;45.302;-122.946;2022-09-09T06:43:06;100913.39;;;21.22;45.04
55460;BME280;41326;45.302;-122.946;2022-09-09T06:45:36;100914.25;;;21.23;44.96
55460;BME280;41326;45.302;-122.946;2022-09-09T06:48:07;100911.27;;;21.22;44.94
55460;BME280;41326;45.302;-122.946;2022-09-09T06:50:37;100913.63;;;21.22;45.29
55460;BME280;41326;45.302;-122.946;2022-09-09T06:53:08;100912.67;;;21.21;45.50
55460;BME280;41326;45.302;-122.946;2022-09-09T06:55:38;100911.99;;;21.20;45.59
55460;BME280;41326;45.302;-122.946;2022-09-09T06:58:13;100911.08;;;21.24;45.58
55460;BME280;41326;45.302;-122.946;2022-09-09T07:00:39;100912.19;;;21.27;45.50
55460;BME280;41326;45.302;-122.946;2022-09-09T07:03:10;100914.21;;;21.23;45.60
55460;BME280;41326;45.302;-122.946;2022-09-09T07:05:40;100911.36;;;21.24;45.56
55460;BME280;41326;45.302;-122.946;2022-09-09T07:08:10;100905.83;;;21.25;45.51
55460;BME280;41326;45.302;-122.946;2022-09-09T07:10:41;100900.80;;;21.26;45.57
55460;BME280;41326;45.302;-122.946;2022-09-09T07:13:11;100893.97;;;21.24;45.69
55460;BME280;41326;45.302;-122.946;2022-09-09T07:15:42;100887.53;;;21.23;45.72
55460;BME280;41326;45.302;-122.946;2022-09-09T07:18:12;100882.44;;;21.25;45.62
55460;BME280;41326;45.302;-122.946;2022-09-09T07:20:42;100886.39;;;21.25;45.54
55460;BME280;41326;45.302;-122.946;2022-09-09T07:23:13;100886.43;;;21.23;45.52
55460;BME280;41326;45.302;-122.946;2022-09-09T07:25:49;100881.57;;;21.25;45.47
55460;BME280;41326;45.302;-122.946;2022-09-09T07:28:14;100880.02;;;21.25;45.38
55460;BME280;41326;45.302;-122.946;2022-09-09T07:33:15;100881.55;;;21.28;45.27
55460;BME280;41326;45.302;-122.946;2022-09-09T07:35:46;100878.48;;;21.28;45.21
55460;BME280;41326;45.302;-122.946;2022-09-09T07:38:16;100876.23;;;21.24;45.29
55460;BME280;41326;45.302;-122.946;2022-09-09T07:40:47;100873.98;;;21.23;45.37
55460;BME280;41326;45.302;-122.946;2022-09-09T07:43:17;100877.72;;;21.23;45.37
55460;BME280;41326;45.302;-122.946;2022-09-09T07:45:48;100877.38;;;21.27;45.25
55460;BME280;41326;45.302;-122.946;2022-09-09T07:48:18;100878.11;;;21.29;45.13
55460;BME280;41326;45.302;-122.946;2022-09-09T07:50:49;100876.57;;;21.32;45.20
55460;BME280;41326;45.302;-122.946;2022-09-09T07:53:19;100875.81;;;21.33;45.17
55460;BME280;41326;45.302;-122.946;2022-09-09T07:55:49;100877.30;;;21.32;45.06
55460;BME280;41326;45.302;-122.946;2022-09-09T07:58:20;100879.16;;;21.33;44.91
55460;BME280;41326;45.302;-122.946;2022-09-09T08:00:50;100873.76;;;21.29;44.89
55460;BME280;41326;45.302;-122.946;2022-09-09T08:03:20;100875.59;;;21.26;45.03
55460;BME280;41326;45.302;-122.946;2022-09-09T08:05:51;100870.34;;;21.25;45.05
55460;BME280;41326;45.302;-122.946;2022-09-09T08:08:21;100865.90;;;21.25;44.96
55460;BME280;41326;45.302;-122.946;2022-09-09T08:10:52;100863.31;;;21.23;44.92
55460;BME280;41326;45.302;-122.946;2022-09-09T08:13:22;100862.02;;;21.18;45.04
55460;BME280;41326;45.302;-122.946;2022-09-09T08:15:52;100863.46;;;21.17;45.05
55460;BME280;41326;45.302;-122.946;2022-09-09T08:18:23;100858.75;;;21.16;44.96
55460;BME280;41326;45.302;-122.946;2022-09-09T08:20:53;100853.50;;;21.13;44.99
55460;BME280;41326;45.302;-122.946;2022-09-09T08:23:23;100852.61;;;21.10;45.13
55460;BME280;41326;45.302;-122.946;2022-09-09T08:25:54;100849.19;;;21.07;45.01
55460;BME280;41326;45.302;-122.946;2022-09-09T08:28:24;100842.72;;;21.08;44.88
55460;BME280;41326;45.302;-122.946;2022-09-09T08:30:54;100836.82;;;21.05;44.74
55460;BME280;41326;45.302;-122.946;2022-09-09T08:33:25;100833.45;;;21.04;44.58
55460;BME280;41326;45.302;-122.946;2022-09-09T08:35:56;100832.43;;;21.05;44.33
55460;BME280;41326;45.302;-122.946;2022-09-09T08:38:26;100822.21;;;21.05;44.28
55460;BME280;41326;45.302;-122.946;2022-09-09T08:41:02;100822.42;;;21.05;44.14
55460;BME280;41326;45.302;-122.946;2022-09-09T08:43:27;100819.76;;;21.03;44.14
55460;BME280;41326;45.302;-122.946;2022-09-09T08:46:02;100816.55;;;21.02;44.05
55460;BME280;41326;45.302;-122.946;2022-09-09T08:48:38;100812.74;;;20.99;44.15
55460;BME280;41326;45.302;-122.946;2022-09-09T08:50:57;100812.99;;;20.96;44.17
55460;BME280;41326;45.302;-122.946;2022-09-09T08:53:28;100808.47;;;20.93;43.89
55460;BME280;41326;45.302;-122.946;2022-09-09T08:55:58;100806.04;;;20.91;44.05
55460;BME280;41326;45.302;-122.946;2022-09-09T08:58:29;100806.21;;;20.92;44.02
55460;BME280;41326;45.302;-122.946;2022-09-09T09:03:36;100798.66;;;20.95;44.01
55460;BME280;41326;45.302;-122.946;2022-09-09T09:06:06;100798.80;;;20.94;44.05
55460;BME280;41326;45.302;-122.946;2022-09-09T09:08:35;100794.34;;;20.99;43.92
55460;BME280;41326;45.302;-122.946;2022-09-09T09:11:01;100793.52;;;20.98;43.66
55460;BME280;41326;45.302;-122.946;2022-09-09T09:13:34;100793.18;;;20.96;43.76
55460;BME280;41326;45.302;-122.946;2022-09-09T09:16:06;100788.51;;;20.95;43.74
55460;BME280;41326;45.302;-122.946;2022-09-09T09:18:30;100783.63;;;20.97;43.67
55460;BME280;41326;45.302;-122.946;2022-09-09T09:21:06;100784.25;;;20.96;43.71
55460;BME280;41326;45.302;-122.946;2022-09-09T09:23:37;100782.88;;;20.95;43.80
55460;BME280;41326;45.302;-122.946;2022-09-09T09:26:06;100779.56;;;20.92;43.89
55460;BME280;41326;45.302;-122.946;2022-09-09T09:28:33;100778.13;;;20.91;43.90
55460;BME280;41326;45.302;-122.946;2022-09-09T09:31:04;100775.15;;;20.91;43.87
55460;BME280;41326;45.302;-122.946;2022-09-09T09:33:37;100774.63;;;20.91;43.64
55460;BME280;41326;45.302;-122.946;2022-09-09T09:36:04;100772.06;;;20.90;43.70
55460;BME280;41326;45.302;-122.946;2022-09-09T09:38:34;100768.67;;;20.89;43.40
55460;BME280;41326;45.302;-122.946;2022-09-09T09:41:05;100770.43;;;20.86;43.36
55460;BME280;41326;45.302;-122.946;2022-09-09T09:43:36;100762.01;;;20.80;43.57
55460;BME280;41326;45.302;-122.946;2022-09-09T09:46:05;100759.27;;;20.77;43.60
55460;BME280;41326;45.302;-122.946;2022-09-09T09:48:35;100754.23;;;20.75;43.81
55460;BME280;41326;45.302;-122.946;2022-09-09T09:51:07;100747.46;;;20.72;43.84
55460;BME280;41326;45.302;-122.946;2022-09-09T09:53:37;100745.41;;;20.75;43.78
55460;BME280;41326;45.302;-122.946;2022-09-09T09:56:08;100748.63;;;20.73;43.80
55460;BME280;41326;45.302;-122.946;2022-09-09T09:58:46;100747.70;;;20.75;43.74
55460;BME280;41326;45.302;-122.946;2022-09-09T10:03:38;100740.51;;;20.76;43.35
55460;BME280;41326;45.302;-122.946;2022-09-09T10:06:08;100740.17;;;20.70;43.59
55460;BME280;41326;45.302;-122.946;2022-09-09T10:08:44;100736.79;;;20.74;43.61
55460;BME280;41326;45.302;-122.946;2022-09-09T10:11:21;100733.62;;;20.75;43.63
55460;BME280;41326;45.302;-122.946;2022-09-09T10:13:44;100733.01;;;20.75;43.58
55460;BME280;41326;45.302;-122.946;2022-09-09T10:16:21;100736.25;;;20.73;43.67
55460;BME280;41326;45.302;-122.946;2022-09-09T10:18:52;100731.28;;;20.75;43.62
55460;BME280;41326;45.302;-122.946;2022-09-09T10:21:20;100732.62;;;20.77;43.60
55460;BME280;41326;45.302;-122.946;2022-09-09T10:23:55;100728.91;;;20.77;43.70
55460;BME280;41326;45.302;-122.946;2022-09-09T10:26:22;100727.31;;;20.79;43.68
55460;BME280;41326;45.302;-122.946;2022-09-09T10:31:19;100724.27;;;20.75;43.69
55460;BME280;41326;45.302;-122.946;2022-09-09T10:33:49;100723.33;;;20.75;43.58
55460;BME280;41326;45.302;-122.946;2022-09-09T10:36:19;100722.95;;;20.75;43.62
55460;BME280;41326;45.302;-122.946;2022-09-09T10:38:45;100723.19;;;20.75;43.69
55460;BME280;41326;45.302;-122.946;2022-09-09T10:41:19;100724.30;;;20.76;43.62
55460;BME280;41326;45.302;-122.946;2022-09-09T10:46:20;100728.16;;;20.75;43.71
55460;BME280;41326;45.302;-122.946;2022-09-09T10:48:56;100721.13;;;20.75;43.74
55460;BME280;41326;45.302;-122.946;2022-09-09T10:51:23;100723.52;;;20.74;43.78
55460;BME280;41326;45.302;-122.946;2022-09-09T10:53:53;100724.54;;;20.73;43.72
55460;BME280;41326;45.302;-122.946;2022-09-09T10:56:16;100721.62;;;20.73;43.57
55460;BME280;41326;45.302;-122.946;2022-09-09T10:58:48;100714.51;;;20.71;43.64
55460;BME280;41326;45.302;-122.946;2022-09-09T11:01:20;100719.95;;;20.68;43.82
55460;BME280;41326;45.302;-122.946;2022-09-09T11:03:47;100714.51;;;20.67;43.86
55460;BME280;41326;45.302;-122.946;2022-09-09T11:06:19;100717.91;;;20.67;43.90
55460;BME280;41326;45.302;-122.946;2022-09-09T11:08:46;100714.70;;;20.64;43.89
55460;BME280;41326;45.302;-122.946;2022-09-09T11:11:25;100711.37;;;20.64;43.99
55460;BME280;41326;45.302;-122.946;2022-09-09T11:13:53;100712.15;;;20.63;44.04
55460;BME280;41326;45.302;-122.946;2022-09-09T11:16:27;100706.32;;;20.64;44.04
55460;BME280;41326;45.302;-122.946;2022-09-09T11:18:48;100706.15;;;20.63;44.05
55460;BME280;41326;45.302;-122.946;2022-09-09T11:21:23;100701.40;;;20.65;44.00
55460;BME280;41326;45.302;-122.946;2022-09-09T11:23:52;100701.63;;;20.64;43.97
55460;BME280;41326;45.302;-122.946;2022-09-09T11:26:26;100693.46;;;20.63;43.91
55460;BME280;41326;45.302;-122.946;2022-09-09T11:29:01;100693.69;;;20.63;43.79
55460;BME280;41326;45.302;-122.946;2022-09-09T11:31:33;100695.31;;;20.62;43.66
55460;BME280;41326;45.302;-122.946;2022-09-09T11:33:58;100692.07;;;20.62;43.28
55460;BME280;41326;45.302;-122.946;2022-09-09T11:36:33;100687.46;;;20.62;43.33
55460;BME280;41326;45.302;-122.946;2022-09-09T11:38:52;100684.94;;;20.58;43.36
55460;BME280;41326;45.302;-122.946;2022-09-09T11:41:21;100683.55;;;20.58;43.29
55460;BME280;41326;45.302;-122.946;2022-09-09T11:43:52;100681.45;;;20.57;43.32
55460;BME280;41326;45.302;-122.946;2022-09-09T11:46:31;100683.27;;;20.58;43.23
55460;BME280;41326;45.302;-122.946;2022-09-09T11:49:00;100686.93;;;20.56;43.27
55460;BME280;41326;45.302;-122.946;2022-09-09T11:51:27;100684.44;;;20.57;43.21
55460;BME280;41326;45.302;-122.946;2022-09-09T11:53:55;100678.02;;;20.57;43.08
55460;BME280;41326;45.302;-122.946;2022-09-09T11:56:28;100681.35;;;20.52;43.17
55460;BME280;41326;45.302;-122.946;2022-09-09T11:58:58;100677.37;;;20.52;43.20
55460;BME280;41326;45.302;-122.946;2022-09-09T12:01:29;100676.65;;;20.51;43.27
55460;BME280;41326;45.302;-122.946;2022-09-09T12:03:59;100675.45;;;20.51;43.24
55460;BME280;41326;45.302;-122.946;2022-09-09T12:06:29;100678.12;;;20.48;43.16
55460;BME280;41326;45.302;-122.946;2022-09-09T12:08:57;100678.43;;;20.48;43.19
55460;BME280;41326;45.302;-122.946;2022-09-09T12:11:29;100678.00;;;20.50;43.15
55460;BME280;41326;45.302;-122.946;2022-09-09T12:13:59;100675.01;;;20.50;43.13
55460;BME280;41326;45.302;-122.946;2022-09-09T12:16:31;100681.37;;;20.48;43.20
55460;BME280;41326;45.302;-122.946;2022-09-09T12:21:33;100684.32;;;20.52;43.17
55460;BME280;41326;45.302;-122.946;2022-09-09T12:23:58;100682.91;;;20.52;43.13
55460;BME280;41326;45.302;-122.946;2022-09-09T12:26:34;100683.48;;;20.53;43.15
55460;BME280;41326;45.302;-122.946;2022-09-09T12:29:04;100680.96;;;20.53;43.14
55460;BME280;41326;45.302;-122.946;2022-09-09T12:32:35;100676.97;;;20.50;43.28
55460;BME280;41326;45.302;-122.946;2022-09-09T12:35:10;100675.85;;;20.49;43.30
55460;BME280;41326;45.302;-122.946;2022-09-09T12:37:40;100676.31;;;20.50;43.24
55460;BME280;41326;45.302;-122.946;2022-09-09T12:42:39;100672.53;;;20.50;43.29
55460;BME280;41326;45.302;-122.946;2022-09-09T12:47:44;100672.88;;;20.49;43.38
55460;BME280;41326;45.302;-122.946;2022-09-09T12:50:15;100674.79;;;20.47;43.45
55460;BME280;41326;45.302;-122.946;2022-09-09T12:52:40;100666.25;;;20.47;43.39
55460;BME280;41326;45.302;-122.946;2022-09-09T12:55:16;100671.06;;;20.47;43.39
55460;BME280;41326;45.302;-122.946;2022-09-09T12:57:43;100668.66;;;20.46;43.39